sensor_id;sensor_type;location;lat;lon;timestamp;temperature;humidity
6758;DHT22;3416;53.074;8.822;2024-03-08T00:01:21;3.70;99.90
6758;DHT22;3416;53.074;8.822;2024-03-08T00:03:48;3.80;99.90
6758;DHT22;3416;53.074;8.822;2024-03-08T00:06:18;3.80;99.90
6758;DHT22;3416;53.074;8.822;2024-03-08T00:08:45;3.80;99.90
6758;DHT22;3416;53.074;8.822;2024-03-08T00:11:12;3.70;99.90
6758;DHT22;3416;53.074;8.822;2024-03-08T00:13:39;3.70;99.90
6758;DHT22;3416;53.074;8.822;2024-03-08T00:16:07;3.70;99.90
6758;DHT22;3416;53.074;8.822;2024-03-08T00:18:35;3.70;99.90
6758;DHT22;3416;53.074;8.822;2024-03-08T00:21:02;3.60;99.90
6758;DHT22;3416;53.074;8.822;2024-03-08T00:23:31;3.70;99.90
6758;DHT22;3416;53.074;8.822;2024-03-08T00:25:59;3.60;99.90
6758;DHT22;3416;53.074;8.822;2024-03-08T00:28:26;3.60;99.90
6758;DHT22;3416;53.074;8.822;2024-03-08T00:30:53;3.60;99.90
6758;DHT22;3416;53.074;8.822;2024-03-08T00:33:19;3.60;99.90
6758;DHT22;3416;53.074;8.822;2024-03-08T00:35:47;3.60;99.90
6758;DHT22;3416;53.074;8.822;2024-03-08T00:38:14;3.50;99.90
6758;DHT22;3416;53.074;8.822;2024-03-08T00:40:42;3.40;99.90
6758;DHT22;3416;53.074;8.822;2024-03-08T00:43:09;3.50;99.90
6758;DHT22;3416;53.074;8.822;2024-03-08T00:45:38;3.40;99.90
6758;DHT22;3416;53.074;8.822;2024-03-08T00:48:08;3.40;99.90
6758;DHT22;3416;53.074;8.822;2024-03-08T00:50:36;3.40;99.90
6758;DHT22;3416;53.074;8.822;2024-03-08T00:53:03;3.40;99.90
6758;DHT22;3416;53.074;8.822;2024-03-08T00:55:31;3.40;99.90
6758;DHT22;3416;53.074;8.822;2024-03-08T00:58:00;3.40;99.90
6758;DHT22;3416;53.074;8.822;2024-03-08T01:00:27;3.40;99.90
6758;DHT22;3416;53.074;8.822;2024-03-08T01:02:54;3.40;99.90
6758;DHT22;3416;53.074;8.822;2024-03-08T01:05:21;3.30;99.90
6758;DHT22;3416;53.074;8.822;2024-03-08T01:07:49;3.20;99.90
6758;DHT22;3416;53.074;8.822;2024-03-08T01:10:18;3.20;99.90
6758;DHT22;3416;53.074;8.822;2024-03-08T01:12:45;3.20;99.90
6758;DHT22;3416;53.074;8.822;2024-03-08T01:15:13;3.20;99.90
6758;DHT22;3416;53.074;8.822;2024-03-08T01:17:40;3.20;99.90
6758;DHT22;3416;53.074;8.822;2024-03-08T01:20:09;3.20;99.90
6758;DHT22;3416;53.074;8.822;2024-03-08T01:22:38;3.10;99.90
6758;DHT22;3416;53.074;8.822;2024-03-08T01:25:05;3.20;99.90
6758;DHT22;3416;53.074;8.822;2024-03-08T01:27:34;3.10;99.90
6758;DHT22;3416;53.074;8.822;2024-03-08T01:30:02;3.00;99.90
6758;DHT22;3416;53.074;8.822;2024-03-08T01:32:31;3.00;99.90
6758;DHT22;3416;53.074;8.822;2024-03-08T01:34:59;3.00;99.90
6758;DHT22;3416;53.074;8.822;2024-03-08T01:37:26;3.00;99.90
6758;DHT22;3416;53.074;8.822;2024-03-08T01:39:54;3.10;99.90
6758;DHT22;3416;53.074;8.822;2024-03-08T01:42:20;2.90;99.90
6758;DHT22;3416;53.074;8.822;2024-03-08T01:44:47;2.80;99.90
6758;DHT22;3416;53.074;8.822;2024-03-08T01:47:14;2.80;99.90
6758;DHT22;3416;53.074;8.822;2024-03-08T01:49:45;2.80;99.90
6758;DHT22;3416;53.074;8.822;2024-03-08T01:52:12;2.80;99.90
6758;DHT22;3416;53.074;8.822;2024-03-08T01:54:39;2.80;99.90
6758;DHT22;3416;53.074;8.822;2024-03-08T01:57:06;2.80;99.90
6758;DHT22;3416;53.074;8.822;2024-03-08T01:59:34;2.80;99.90
6758;DHT22;3416;53.074;8.822;2024-03-08T02:02:01;2.80;99.90
6758;DHT22;3416;53.074;8.822;2024-03-08T02:04:29;2.80;99.90
6758;DHT22;3416;53.074;8.822;2024-03-08T02:06:58;2.70;99.90
6758;DHT22;3416;53.074;8.822;2024-03-08T02:09:25;2.70;99.90
6758;DHT22;3416;53.074;8.822;2024-03-08T02:11:52;2.70;99.90
6758;DHT22;3416;53.074;8.822;2024-03-08T02:14:20;2.70;99.90
6758;DHT22;3416;53.074;8.822;2024-03-08T02:16:47;2.70;99.90
6758;DHT22;3416;53.074;8.822;2024-03-08T02:19:14;2.70;99.90
6758;DHT22;3416;53.074;8.822;2024-03-08T02:21:42;2.70;99.90
6758;DHT22;3416;53.074;8.822;2024-03-08T02:24:12;2.70;99.90
6758;DHT22;3416;53.074;8.822;2024-03-08T02:26:40;2.60;99.90
6758;DHT22;3416;53.074;8.822;2024-03-08T02:29:08;2.70;99.90
6758;DHT22;3416;53.074;8.822;2024-03-08T02:31:35;2.60;99.90
6758;DHT22;3416;53.074;8.822;2024-03-08T02:34:02;2.60;99.90
6758;DHT22;3416;53.074;8.822;2024-03-08T02:36:30;2.60;99.90
6758;DHT22;3416;53.074;8.822;2024-03-08T02:39:02;2.60;99.90
6758;DHT22;3416;53.074;8.822;2024-03-08T02:41:30;2.60;99.90
6758;DHT22;3416;53.074;8.822;2024-03-08T02:43:58;2.60;99.90
6758;DHT22;3416;53.074;8.822;2024-03-08T02:46:25;2.60;99.90
6758;DHT22;3416;53.074;8.822;2024-03-08T02:48:52;2.50;99.90
6758;DHT22;3416;53.074;8.822;2024-03-08T02:51:19;2.50;99.90
6758;DHT22;3416;53.074;8.822;2024-03-08T02:53:46;2.50;99.90
6758;DHT22;3416;53.074;8.822;2024-03-08T02:56:16;2.50;99.90
6758;DHT22;3416;53.074;8.822;2024-03-08T02:58:43;2.50;99.90
6758;DHT22;3416;53.074;8.822;2024-03-08T03:01:14;2.50;99.90
6758;DHT22;3416;53.074;8.822;2024-03-08T03:03:41;2.50;99.90
6758;DHT22;3416;53.074;8.822;2024-03-08T03:06:08;2.40;99.90
6758;DHT22;3416;53.074;8.822;2024-03-08T03:08:35;2.50;99.90
6758;DHT22;3416;53.074;8.822;2024-03-08T03:11:02;2.40;99.90
6758;DHT22;3416;53.074;8.822;2024-03-08T03:13:31;2.40;99.90
6758;DHT22;3416;53.074;8.822;2024-03-08T03:15:59;2.50;99.90
6758;DHT22;3416;53.074;8.822;2024-03-08T03:18:26;2.60;99.90
6758;DHT22;3416;53.074;8.822;2024-03-08T03:20:53;2.50;99.90
6758;DHT22;3416;53.074;8.822;2024-03-08T03:23:20;2.40;99.90
6758;DHT22;3416;53.074;8.822;2024-03-08T03:25:47;2.50;99.90
6758;DHT22;3416;53.074;8.822;2024-03-08T03:28:14;2.40;99.90
6758;DHT22;3416;53.074;8.822;2024-03-08T03:30:59;2.50;99.90
6758;DHT22;3416;53.074;8.822;2024-03-08T03:33:28;2.40;99.90
6758;DHT22;3416;53.074;8.822;2024-03-08T03:35:57;2.40;99.90
6758;DHT22;3416;53.074;8.822;2024-03-08T03:38:27;2.40;99.90
6758;DHT22;3416;53.074;8.822;2024-03-08T03:40:59;2.40;99.90
6758;DHT22;3416;53.074;8.822;2024-03-08T03:43:33;2.40;99.90
6758;DHT22;3416;53.074;8.822;2024-03-08T03:46:02;2.40;99.90
6758;DHT22;3416;53.074;8.822;2024-03-08T03:48:31;2.20;99.90
6758;DHT22;3416;53.074;8.822;2024-03-08T03:50:59;2.30;99.90
6758;DHT22;3416;53.074;8.822;2024-03-08T03:53:26;2.30;99.90
6758;DHT22;3416;53.074;8.822;2024-03-08T03:55:53;2.30;99.90
6758;DHT22;3416;53.074;8.822;2024-03-08T03:58:25;2.30;99.90
6758;DHT22;3416;53.074;8.822;2024-03-08T04:00:58;2.20;99.90
6758;DHT22;3416;53.074;8.822;2024-03-08T04:03:28;2.10;99.90
6758;DHT22;3416;53.074;8.822;2024-03-08T04:05:59;2.20;99.90
6758;DHT22;3416;53.074;8.822;2024-03-08T04:08:27;2.20;99.90
6758;DHT22;3416;53.074;8.822;2024-03-08T04:10:54;2.10;99.90
6758;DHT22;3416;53.074;8.822;2024-03-08T04:13:21;2.10;99.90
6758;DHT22;3416;53.074;8.822;2024-03-08T04:15:48;2.20;99.90
6758;DHT22;3416;53.074;8.822;2024-03-08T04:18:15;2.00;99.90
6758;DHT22;3416;53.074;8.822;2024-03-08T04:20:45;2.00;99.90
6758;DHT22;3416;53.074;8.822;2024-03-08T04:23:12;2.00;99.90
6758;DHT22;3416;53.074;8.822;2024-03-08T04:25:38;1.90;99.90
6758;DHT22;3416;53.074;8.822;2024-03-08T04:28:07;1.90;99.90
6758;DHT22;3416;53.074;8.822;2024-03-08T04:30:35;1.90;99.90
6758;DHT22;3416;53.074;8.822;2024-03-08T04:33:03;1.90;99.90
6758;DHT22;3416;53.074;8.822;2024-03-08T04:35:30;1.90;99.90
6758;DHT22;3416;53.074;8.822;2024-03-08T04:37:58;1.90;99.90
6758;DHT22;3416;53.074;8.822;2024-03-08T04:40:25;1.90;99.90
6758;DHT22;3416;53.074;8.822;2024-03-08T04:42:52;1.90;99.90
6758;DHT22;3416;53.074;8.822;2024-03-08T04:45:19;1.90;99.90
6758;DHT22;3416;53.074;8.822;2024-03-08T04:47:47;1.90;99.90
6758;DHT22;3416;53.074;8.822;2024-03-08T04:50:14;1.90;99.90
6758;DHT22;3416;53.074;8.822;2024-03-08T04:52:41;1.80;99.90
6758;DHT22;3416;53.074;8.822;2024-03-08T04:55:09;1.80;99.90
6758;DHT22;3416;53.074;8.822;2024-03-08T04:57:36;1.60;99.90
6758;DHT22;3416;53.074;8.822;2024-03-08T05:00:04;1.80;99.90
6758;DHT22;3416;53.074;8.822;2024-03-08T05:02:36;1.80;99.90
6758;DHT22;3416;53.074;8.822;2024-03-08T05:05:05;1.80;99.90
6758;DHT22;3416;53.074;8.822;2024-03-08T05:07:32;1.90;99.90
6758;DHT22;3416;53.074;8.822;2024-03-08T05:10:00;1.90;99.90
6758;DHT22;3416;53.074;8.822;2024-03-08T05:12:34;1.80;99.90
6758;DHT22;3416;53.074;8.822;2024-03-08T05:15:01;1.80;99.90
6758;DHT22;3416;53.074;8.822;2024-03-08T05:17:30;1.90;99.90
6758;DHT22;3416;53.074;8.822;2024-03-08T05:19:57;1.90;99.90
6758;DHT22;3416;53.074;8.822;2024-03-08T05:22:24;1.80;99.90
6758;DHT22;3416;53.074;8.822;2024-03-08T05:24:51;1.80;99.90
6758;DHT22;3416;53.074;8.822;2024-03-08T05:27:18;1.80;99.90
6758;DHT22;3416;53.074;8.822;2024-03-08T05:29:47;1.80;99.90
6758;DHT22;3416;53.074;8.822;2024-03-08T05:32:14;1.80;99.90
6758;DHT22;3416;53.074;8.822;2024-03-08T05:34:41;1.80;99.90
6758;DHT22;3416;53.074;8.822;2024-03-08T05:37:08;1.80;99.90
6758;DHT22;3416;53.074;8.822;2024-03-08T05:39:35;1.80;99.90
6758;DHT22;3416;53.074;8.822;2024-03-08T05:42:02;1.70;99.90
6758;DHT22;3416;53.074;8.822;2024-03-08T05:44:29;1.70;99.90
6758;DHT22;3416;53.074;8.822;2024-03-08T05:46:57;1.80;99.90
6758;DHT22;3416;53.074;8.822;2024-03-08T05:49:24;1.70;99.90
6758;DHT22;3416;53.074;8.822;2024-03-08T05:51:51;1.70;99.90
6758;DHT22;3416;53.074;8.822;2024-03-08T05:54:19;1.60;99.90
6758;DHT22;3416;53.074;8.822;2024-03-08T05:56:47;1.70;99.90
6758;DHT22;3416;53.074;8.822;2024-03-08T05:59:18;1.70;99.90
6758;DHT22;3416;53.074;8.822;2024-03-08T06:01:45;1.70;99.90
6758;DHT22;3416;53.074;8.822;2024-03-08T06:04:14;1.70;99.90
6758;DHT22;3416;53.074;8.822;2024-03-08T06:06:40;1.70;99.90
6758;DHT22;3416;53.074;8.822;2024-03-08T06:09:07;1.70;99.90
6758;DHT22;3416;53.074;8.822;2024-03-08T06:11:37;1.70;99.90
6758;DHT22;3416;53.074;8.822;2024-03-08T06:14:04;1.80;99.90
6758;DHT22;3416;53.074;8.822;2024-03-08T06:16:31;1.70;99.90
6758;DHT22;3416;53.074;8.822;2024-03-08T06:18:59;1.80;99.90
6758;DHT22;3416;53.074;8.822;2024-03-08T06:21:29;1.90;99.90
6758;DHT22;3416;53.074;8.822;2024-03-08T06:23:56;1.90;99.90
6758;DHT22;3416;53.074;8.822;2024-03-08T06:26:23;1.90;99.90
6758;DHT22;3416;53.074;8.822;2024-03-08T06:28:53;2.00;99.90
6758;DHT22;3416;53.074;8.822;2024-03-08T06:31:20;2.00;99.90
6758;DHT22;3416;53.074;8.822;2024-03-08T06:33:47;2.10;99.90
6758;DHT22;3416;53.074;8.822;2024-03-08T06:36:16;2.10;99.90
6758;DHT22;3416;53.074;8.822;2024-03-08T06:38:45;2.20;99.90
6758;DHT22;3416;53.074;8.822;2024-03-08T06:41:13;2.40;99.90
6758;DHT22;3416;53.074;8.822;2024-03-08T06:43:41;2.40;99.90
6758;DHT22;3416;53.074;8.822;2024-03-08T06:46:08;2.40;99.90
6758;DHT22;3416;53.074;8.822;2024-03-08T06:48:35;2.50;99.90
6758;DHT22;3416;53.074;8.822;2024-03-08T06:51:03;2.50;99.90
6758;DHT22;3416;53.074;8.822;2024-03-08T06:53:30;2.60;99.90
6758;DHT22;3416;53.074;8.822;2024-03-08T06:55:59;2.70;99.90
6758;DHT22;3416;53.074;8.822;2024-03-08T06:58:26;3.00;99.90
6758;DHT22;3416;53.074;8.822;2024-03-08T07:00:53;3.50;99.90
6758;DHT22;3416;53.074;8.822;2024-03-08T07:03:24;4.20;99.90
6758;DHT22;3416;53.074;8.822;2024-03-08T07:05:52;4.80;99.90
6758;DHT22;3416;53.074;8.822;2024-03-08T07:08:20;5.30;99.90
6758;DHT22;3416;53.074;8.822;2024-03-08T07:10:48;5.90;99.90
6758;DHT22;3416;53.074;8.822;2024-03-08T07:13:17;6.50;99.90
6758;DHT22;3416;53.074;8.822;2024-03-08T07:15:44;6.90;99.90
6758;DHT22;3416;53.074;8.822;2024-03-08T07:18:12;7.40;99.90
6758;DHT22;3416;53.074;8.822;2024-03-08T07:20:42;7.70;99.90
6758;DHT22;3416;53.074;8.822;2024-03-08T07:23:09;8.20;99.90
6758;DHT22;3416;53.074;8.822;2024-03-08T07:25:36;8.70;99.90
6758;DHT22;3416;53.074;8.822;2024-03-08T07:28:04;8.90;99.00
6758;DHT22;3416;53.074;8.822;2024-03-08T07:30:34;9.30;98.40
6758;DHT22;3416;53.074;8.822;2024-03-08T07:33:29;9.50;96.70
6758;DHT22;3416;53.074;8.822;2024-03-08T07:36:24;9.30;96.30
6758;DHT22;3416;53.074;8.822;2024-03-08T07:41:56;9.40;96.20
6758;DHT22;3416;53.074;8.822;2024-03-08T07:44:23;9.60;95.50
6758;DHT22;3416;53.074;8.822;2024-03-08T07:46:51;9.80;95.40
6758;DHT22;3416;53.074;8.822;2024-03-08T07:49:18;10.20;94.50
6758;DHT22;3416;53.074;8.822;2024-03-08T07:51:45;10.40;93.70
6758;DHT22;3416;53.074;8.822;2024-03-08T07:54:12;10.40;93.40
6758;DHT22;3416;53.074;8.822;2024-03-08T07:56:39;11.00;93.00
6758;DHT22;3416;53.074;8.822;2024-03-08T07:59:06;11.10;92.10
6758;DHT22;3416;53.074;8.822;2024-03-08T08:01:33;11.10;91.60
6758;DHT22;3416;53.074;8.822;2024-03-08T08:04:01;11.20;92.00
6758;DHT22;3416;53.074;8.822;2024-03-08T08:06:28;11.30;91.30
6758;DHT22;3416;53.074;8.822;2024-03-08T08:08:57;11.90;91.20
6758;DHT22;3416;53.074;8.822;2024-03-08T08:11:26;12.20;90.60
6758;DHT22;3416;53.074;8.822;2024-03-08T08:13:54;12.20;90.00
6758;DHT22;3416;53.074;8.822;2024-03-08T08:16:23;12.30;89.20
6758;DHT22;3416;53.074;8.822;2024-03-08T08:18:52;12.40;88.70
6758;DHT22;3416;53.074;8.822;2024-03-08T08:21:21;12.40;88.10
6758;DHT22;3416;53.074;8.822;2024-03-08T08:23:50;12.20;88.20
6758;DHT22;3416;53.074;8.822;2024-03-08T08:26:17;12.10;88.80
6758;DHT22;3416;53.074;8.822;2024-03-08T08:28:44;12.30;89.00
6758;DHT22;3416;53.074;8.822;2024-03-08T08:31:12;13.00;87.60
6758;DHT22;3416;53.074;8.822;2024-03-08T08:33:39;13.30;85.30
6758;DHT22;3416;53.074;8.822;2024-03-08T08:36:06;13.40;84.90
6758;DHT22;3416;53.074;8.822;2024-03-08T08:38:36;13.40;84.40
6758;DHT22;3416;53.074;8.822;2024-03-08T08:41:04;13.30;84.90
6758;DHT22;3416;53.074;8.822;2024-03-08T08:43:31;13.20;84.40
6758;DHT22;3416;53.074;8.822;2024-03-08T08:45:59;13.40;84.60
6758;DHT22;3416;53.074;8.822;2024-03-08T08:48:26;13.60;83.90
6758;DHT22;3416;53.074;8.822;2024-03-08T08:50:56;13.70;83.50
6758;DHT22;3416;53.074;8.822;2024-03-08T08:53:23;13.80;82.90
6758;DHT22;3416;53.074;8.822;2024-03-08T08:55:51;14.00;83.00
6758;DHT22;3416;53.074;8.822;2024-03-08T08:58:19;13.70;82.10
6758;DHT22;3416;53.074;8.822;2024-03-08T09:00:46;14.10;82.60
6758;DHT22;3416;53.074;8.822;2024-03-08T09:03:13;14.50;81.80
6758;DHT22;3416;53.074;8.822;2024-03-08T09:05:42;14.80;80.70
6758;DHT22;3416;53.074;8.822;2024-03-08T09:08:09;15.20;80.40
6758;DHT22;3416;53.074;8.822;2024-03-08T09:10:36;15.50;78.90
6758;DHT22;3416;53.074;8.822;2024-03-08T09:13:06;15.20;78.40
6758;DHT22;3416;53.074;8.822;2024-03-08T09:15:35;15.10;78.90
6758;DHT22;3416;53.074;8.822;2024-03-08T09:18:06;15.00;78.90
6758;DHT22;3416;53.074;8.822;2024-03-08T09:20:33;15.30;79.00
6758;DHT22;3416;53.074;8.822;2024-03-08T09:23:01;15.90;77.80
6758;DHT22;3416;53.074;8.822;2024-03-08T09:25:28;15.80;76.00
6758;DHT22;3416;53.074;8.822;2024-03-08T09:27:56;16.00;76.70
6758;DHT22;3416;53.074;8.822;2024-03-08T09:30:43;16.60;76.50
6758;DHT22;3416;53.074;8.822;2024-03-08T09:33:25;16.00;74.10
6758;DHT22;3416;53.074;8.822;2024-03-08T09:36:09;15.60;75.10
6758;DHT22;3416;53.074;8.822;2024-03-08T09:38:51;14.90;75.70
6758;DHT22;3416;53.074;8.822;2024-03-08T09:41:38;15.10;76.50
6758;DHT22;3416;53.074;8.822;2024-03-08T09:44:24;14.70;76.10
6758;DHT22;3416;53.074;8.822;2024-03-08T09:46:56;14.70;77.30
6758;DHT22;3416;53.074;8.822;2024-03-08T09:49:24;14.30;77.20
6758;DHT22;3416;53.074;8.822;2024-03-08T09:51:51;14.30;77.20
6758;DHT22;3416;53.074;8.822;2024-03-08T09:54:19;14.00;77.70
6758;DHT22;3416;53.074;8.822;2024-03-08T09:56:48;14.20;78.00
6758;DHT22;3416;53.074;8.822;2024-03-08T09:59:15;14.40;78.30
6758;DHT22;3416;53.074;8.822;2024-03-08T10:02:16;14.60;77.10
6758;DHT22;3416;53.074;8.822;2024-03-08T10:04:46;14.00;77.80
6758;DHT22;3416;53.074;8.822;2024-03-08T10:07:13;14.00;77.70
6758;DHT22;3416;53.074;8.822;2024-03-08T10:09:40;14.00;78.50
6758;DHT22;3416;53.074;8.822;2024-03-08T10:12:13;13.60;79.00
6758;DHT22;3416;53.074;8.822;2024-03-08T10:14:41;13.30;79.60
6758;DHT22;3416;53.074;8.822;2024-03-08T10:17:09;13.30;79.80
6758;DHT22;3416;53.074;8.822;2024-03-08T10:19:37;13.10;80.20
6758;DHT22;3416;53.074;8.822;2024-03-08T10:22:04;12.70;80.50
6758;DHT22;3416;53.074;8.822;2024-03-08T10:24:32;12.70;80.90
6758;DHT22;3416;53.074;8.822;2024-03-08T10:27:00;13.40;80.50
6758;DHT22;3416;53.074;8.822;2024-03-08T10:29:31;13.40;80.00
6758;DHT22;3416;53.074;8.822;2024-03-08T10:31:58;13.70;79.50
6758;DHT22;3416;53.074;8.822;2024-03-08T10:34:25;13.70;79.50
6758;DHT22;3416;53.074;8.822;2024-03-08T10:36:57;13.60;78.70
6758;DHT22;3416;53.074;8.822;2024-03-08T10:39:31;13.90;78.80
6758;DHT22;3416;53.074;8.822;2024-03-08T10:42:03;13.60;78.30
6758;DHT22;3416;53.074;8.822;2024-03-08T10:44:44;12.80;79.20
6758;DHT22;3416;53.074;8.822;2024-03-08T10:47:19;12.80;80.60
6758;DHT22;3416;53.074;8.822;2024-03-08T10:49:54;12.40;81.60
6758;DHT22;3416;53.074;8.822;2024-03-08T10:52:24;11.60;82.40
6758;DHT22;3416;53.074;8.822;2024-03-08T10:54:52;11.10;84.00
6758;DHT22;3416;53.074;8.822;2024-03-08T10:57:22;10.80;85.70
6758;DHT22;3416;53.074;8.822;2024-03-08T10:59:51;10.80;86.60
6758;DHT22;3416;53.074;8.822;2024-03-08T11:02:18;10.50;86.80
6758;DHT22;3416;53.074;8.822;2024-03-08T11:04:46;10.50;87.20
6758;DHT22;3416;53.074;8.822;2024-03-08T11:07:14;10.60;87.70
6758;DHT22;3416;53.074;8.822;2024-03-08T11:09:47;10.60;87.90
6758;DHT22;3416;53.074;8.822;2024-03-08T11:12:23;10.60;87.10
6758;DHT22;3416;53.074;8.822;2024-03-08T11:14:59;10.50;86.80
6758;DHT22;3416;53.074;8.822;2024-03-08T11:17:46;10.20;87.10
6758;DHT22;3416;53.074;8.822;2024-03-08T11:20:14;10.30;88.10
6758;DHT22;3416;53.074;8.822;2024-03-08T11:22:47;10.10;87.20
6758;DHT22;3416;53.074;8.822;2024-03-08T11:25:35;9.90;88.50
6758;DHT22;3416;53.074;8.822;2024-03-08T11:28:14;9.80;89.40
6758;DHT22;3416;53.074;8.822;2024-03-08T11:30:47;9.80;89.10
6758;DHT22;3416;53.074;8.822;2024-03-08T11:33:36;9.60;89.40
6758;DHT22;3416;53.074;8.822;2024-03-08T11:36:07;9.80;89.90
6758;DHT22;3416;53.074;8.822;2024-03-08T11:38:40;9.60;90.20
6758;DHT22;3416;53.074;8.822;2024-03-08T11:41:11;9.50;90.20
6758;DHT22;3416;53.074;8.822;2024-03-08T11:43:40;9.30;90.20
6758;DHT22;3416;53.074;8.822;2024-03-08T11:46:10;9.60;90.20
6758;DHT22;3416;53.074;8.822;2024-03-08T11:48:38;9.60;90.20
6758;DHT22;3416;53.074;8.822;2024-03-08T11:51:07;9.50;90.10
6758;DHT22;3416;53.074;8.822;2024-03-08T11:53:35;9.50;90.30
6758;DHT22;3416;53.074;8.822;2024-03-08T11:56:07;9.60;90.30
6758;DHT22;3416;53.074;8.822;2024-03-08T11:58:36;9.50;90.50
6758;DHT22;3416;53.074;8.822;2024-03-08T12:01:07;9.60;90.20
6758;DHT22;3416;53.074;8.822;2024-03-08T12:03:37;9.80;90.40
6758;DHT22;3416;53.074;8.822;2024-03-08T12:06:05;9.80;90.50
6758;DHT22;3416;53.074;8.822;2024-03-08T12:08:35;9.70;90.30
6758;DHT22;3416;53.074;8.822;2024-03-08T12:11:04;9.80;90.40
6758;DHT22;3416;53.074;8.822;2024-03-08T12:13:32;9.90;90.10
6758;DHT22;3416;53.074;8.822;2024-03-08T12:16:02;9.90;90.10
6758;DHT22;3416;53.074;8.822;2024-03-08T12:18:33;9.90;89.70
6758;DHT22;3416;53.074;8.822;2024-03-08T12:21:05;9.70;89.60
6758;DHT22;3416;53.074;8.822;2024-03-08T12:23:34;9.70;89.40
6758;DHT22;3416;53.074;8.822;2024-03-08T12:26:12;9.70;89.70
6758;DHT22;3416;53.074;8.822;2024-03-08T12:28:41;9.70;90.20
6758;DHT22;3416;53.074;8.822;2024-03-08T12:31:12;9.90;90.00
6758;DHT22;3416;53.074;8.822;2024-03-08T12:33:49;9.90;88.90
6758;DHT22;3416;53.074;8.822;2024-03-08T12:36:18;9.90;89.20
6758;DHT22;3416;53.074;8.822;2024-03-08T12:38:45;9.90;89.40
6758;DHT22;3416;53.074;8.822;2024-03-08T12:41:13;9.90;89.70
6758;DHT22;3416;53.074;8.822;2024-03-08T12:43:40;10.10;88.50
6758;DHT22;3416;53.074;8.822;2024-03-08T12:46:07;10.00;88.70
6758;DHT22;3416;53.074;8.822;2024-03-08T12:48:36;9.90;89.60
6758;DHT22;3416;53.074;8.822;2024-03-08T12:51:06;10.00;88.40
6758;DHT22;3416;53.074;8.822;2024-03-08T12:53:43;10.10;88.90
6758;DHT22;3416;53.074;8.822;2024-03-08T12:56:11;10.10;88.60
6758;DHT22;3416;53.074;8.822;2024-03-08T12:58:38;10.00;88.80
6758;DHT22;3416;53.074;8.822;2024-03-08T13:01:06;9.90;90.00
6758;DHT22;3416;53.074;8.822;2024-03-08T13:03:33;9.90;90.00
6758;DHT22;3416;53.074;8.822;2024-03-08T13:06:03;9.80;90.20
6758;DHT22;3416;53.074;8.822;2024-03-08T13:08:31;9.80;90.60
6758;DHT22;3416;53.074;8.822;2024-03-08T13:11:12;9.80;90.40
6758;DHT22;3416;53.074;8.822;2024-03-08T13:13:44;10.10;90.10
6758;DHT22;3416;53.074;8.822;2024-03-08T13:16:13;10.00;90.00
6758;DHT22;3416;53.074;8.822;2024-03-08T13:18:43;9.90;90.50
6758;DHT22;3416;53.074;8.822;2024-03-08T13:21:11;9.90;90.70
6758;DHT22;3416;53.074;8.822;2024-03-08T13:23:41;10.00;90.50
6758;DHT22;3416;53.074;8.822;2024-03-08T13:28:55;10.10;90.40
6758;DHT22;3416;53.074;8.822;2024-03-08T13:31:24;10.20;90.40
6758;DHT22;3416;53.074;8.822;2024-03-08T13:33:51;10.30;90.20
6758;DHT22;3416;53.074;8.822;2024-03-08T13:36:25;10.20;90.20
6758;DHT22;3416;53.074;8.822;2024-03-08T13:38:56;10.10;90.50
6758;DHT22;3416;53.074;8.822;2024-03-08T13:41:25;10.10;90.70
6758;DHT22;3416;53.074;8.822;2024-03-08T13:43:53;10.10;90.40
6758;DHT22;3416;53.074;8.822;2024-03-08T13:46:21;10.10;90.60
6758;DHT22;3416;53.074;8.822;2024-03-08T13:48:49;10.10;90.50
6758;DHT22;3416;53.074;8.822;2024-03-08T13:51:16;10.10;90.60
6758;DHT22;3416;53.074;8.822;2024-03-08T13:53:45;10.20;90.60
6758;DHT22;3416;53.074;8.822;2024-03-08T13:56:12;10.20;90.50
6758;DHT22;3416;53.074;8.822;2024-03-08T13:58:40;10.30;90.50
6758;DHT22;3416;53.074;8.822;2024-03-08T14:01:10;10.30;90.60
6758;DHT22;3416;53.074;8.822;2024-03-08T14:03:38;10.40;90.60
6758;DHT22;3416;53.074;8.822;2024-03-08T14:06:07;10.30;90.30
6758;DHT22;3416;53.074;8.822;2024-03-08T14:08:35;10.20;90.20
6758;DHT22;3416;53.074;8.822;2024-03-08T14:11:05;10.30;90.40
6758;DHT22;3416;53.074;8.822;2024-03-08T14:13:41;10.30;90.20
6758;DHT22;3416;53.074;8.822;2024-03-08T14:16:10;10.30;90.40
6758;DHT22;3416;53.074;8.822;2024-03-08T14:18:37;10.30;90.20
6758;DHT22;3416;53.074;8.822;2024-03-08T14:21:04;10.30;90.30
6758;DHT22;3416;53.074;8.822;2024-03-08T14:23:32;10.30;90.40
6758;DHT22;3416;53.074;8.822;2024-03-08T14:25:59;10.30;90.50
6758;DHT22;3416;53.074;8.822;2024-03-08T14:28:28;10.30;90.60
6758;DHT22;3416;53.074;8.822;2024-03-08T14:30:55;10.40;90.80
6758;DHT22;3416;53.074;8.822;2024-03-08T14:33:23;10.40;90.90
6758;DHT22;3416;53.074;8.822;2024-03-08T14:35:54;10.40;91.00
6758;DHT22;3416;53.074;8.822;2024-03-08T14:38:23;10.30;91.00
6758;DHT22;3416;53.074;8.822;2024-03-08T14:40:53;10.40;91.20
6758;DHT22;3416;53.074;8.822;2024-03-08T14:43:22;10.30;90.90
6758;DHT22;3416;53.074;8.822;2024-03-08T14:45:51;10.40;90.90
6758;DHT22;3416;53.074;8.822;2024-03-08T14:48:18;10.40;90.90
6758;DHT22;3416;53.074;8.822;2024-03-08T14:50:45;10.40;90.90
6758;DHT22;3416;53.074;8.822;2024-03-08T14:53:13;10.40;90.80
6758;DHT22;3416;53.074;8.822;2024-03-08T14:55:42;10.50;91.10
6758;DHT22;3416;53.074;8.822;2024-03-08T14:58:09;10.40;91.10
6758;DHT22;3416;53.074;8.822;2024-03-08T15:00:37;10.40;90.90
6758;DHT22;3416;53.074;8.822;2024-03-08T15:03:07;10.40;90.90
6758;DHT22;3416;53.074;8.822;2024-03-08T15:05:38;10.20;91.10
6758;DHT22;3416;53.074;8.822;2024-03-08T15:08:09;10.20;91.30
6758;DHT22;3416;53.074;8.822;2024-03-08T15:10:36;10.20;91.30
6758;DHT22;3416;53.074;8.822;2024-03-08T15:13:06;10.30;91.30
6758;DHT22;3416;53.074;8.822;2024-03-08T15:15:40;10.20;91.30
6758;DHT22;3416;53.074;8.822;2024-03-08T15:18:09;10.20;91.40
6758;DHT22;3416;53.074;8.822;2024-03-08T15:20:37;10.20;91.30
6758;DHT22;3416;53.074;8.822;2024-03-08T15:23:04;10.10;91.40
6758;DHT22;3416;53.074;8.822;2024-03-08T15:25:35;10.10;91.60
6758;DHT22;3416;53.074;8.822;2024-03-08T17:43:58;8.10;95.00
6758;DHT22;3416;53.074;8.822;2024-03-08T17:46:35;8.00;95.00
6758;DHT22;3416;53.074;8.822;2024-03-08T17:49:03;8.00;95.00
6758;DHT22;3416;53.074;8.822;2024-03-08T17:51:33;8.00;95.10
6758;DHT22;3416;53.074;8.822;2024-03-08T17:54:01;8.00;95.20
6758;DHT22;3416;53.074;8.822;2024-03-08T17:56:29;7.90;95.20
6758;DHT22;3416;53.074;8.822;2024-03-08T17:58:58;7.90;95.40
6758;DHT22;3416;53.074;8.822;2024-03-08T18:01:28;7.90;95.40
6758;DHT22;3416;53.074;8.822;2024-03-08T18:03:55;7.90;95.40
6758;DHT22;3416;53.074;8.822;2024-03-08T18:06:25;7.80;95.40
6758;DHT22;3416;53.074;8.822;2024-03-08T18:08:52;7.80;95.50
6758;DHT22;3416;53.074;8.822;2024-03-08T18:11:20;7.70;95.30
6758;DHT22;3416;53.074;8.822;2024-03-08T18:13:48;7.70;95.40
6758;DHT22;3416;53.074;8.822;2024-03-08T18:16:18;7.70;95.40
6758;DHT22;3416;53.074;8.822;2024-03-08T18:18:46;7.70;95.50
6758;DHT22;3416;53.074;8.822;2024-03-08T18:21:15;7.70;95.60
6758;DHT22;3416;53.074;8.822;2024-03-08T18:23:42;7.60;95.60
6758;DHT22;3416;53.074;8.822;2024-03-08T18:26:10;7.50;95.70
6758;DHT22;3416;53.074;8.822;2024-03-08T18:28:38;7.50;96.00
6758;DHT22;3416;53.074;8.822;2024-03-08T18:31:10;7.40;96.00
6758;DHT22;3416;53.074;8.822;2024-03-08T18:33:42;7.40;96.10
6758;DHT22;3416;53.074;8.822;2024-03-08T18:36:10;7.30;96.30
6758;DHT22;3416;53.074;8.822;2024-03-08T18:38:37;7.30;96.40
6758;DHT22;3416;53.074;8.822;2024-03-08T18:41:06;7.30;96.50
6758;DHT22;3416;53.074;8.822;2024-03-08T18:43:34;7.20;96.50
6758;DHT22;3416;53.074;8.822;2024-03-08T18:46:02;7.20;96.60